Hovedside
METAR-TAF:

METAR-TAF

Lufthavner :

Esbjerg lufthavn

Esbjerg, Danmark

breddegrad: 55-32N, lengdegrad: 008-34E, høyde over havet: 30 m

Gjeldene værobservasjon

Denne rapporten ble laget for 15 minutter siden, klokken 13:20 UTC
Vind 8 kt fra Sør
Temperatur 8°C
Luftfuktighet 93%
Trykk 1029 hPa
Sikt: 2500 m
dis

METAR: EKEB 221320Z AUTO 18008KT 2500 BR OVC003/// 08/07 Q1029

Tid: 14:35 (13:35 UTC)

Varsel

Denne rapporten ble laget for 1 time og 53 minutter siden, klokken 11:42 UTC
Varsel gyldig fra 22. klokken 12 UTC til 22. klokken 21 UTC
Vind 5 kt fra Sør
Sikt 10 km eller mer
Brutte skyer i en høyde av 300 ft
Midlertidig
fra 22. klokken 12 UTC til 22. klokken 21 UTC
Sikt: 1500 m
Spredte skyer i en høyde av 300 ft
dis

TAF: EKEB 221142Z 2212/2221 18005KT 9999 BKN003 TEMPO 2212/2221 1500 BR SCT003

Værobservasjoner og værvarsel for over 4000 flyplasser (METAR- og TAF-rapporter).

Tilgjengelige stasjoner er representert av de røde og gule prikkene på kartet.

Hold musepekeren over prikken for å se navnet på stasjonen.

Klikk så for å se værobservasjoner og -varsler.

For å forandre kartet kan du klikke på den grønne knappen med svart kryss for å zoome inn, på den grønne knappen med strek for å zoome ut, eller på de grønne pilene for å se tilstøtende kart.


METAR-TAF: